createdAt,value
2023-12-07T00:00:37.839Z,9.40
2023-12-07T00:03:27.621Z,8.50
2023-12-07T00:05:57.353Z,8.20
2023-12-07T00:08:24.505Z,9.70
2023-12-07T00:10:51.427Z,8.80
2023-12-07T00:13:18.263Z,7.70
2023-12-07T00:15:45.178Z,12.60
2023-12-07T00:18:11.967Z,8.90
2023-12-07T00:20:39.057Z,10.20
2023-12-07T00:23:06.546Z,10.70
2023-12-07T00:25:36.097Z,9.60
2023-12-07T00:28:04.125Z,9.90
2023-12-07T00:30:31.460Z,10.50
2023-12-07T00:32:58.387Z,10.30
2023-12-07T00:35:25.541Z,12.10
2023-12-07T00:37:52.736Z,8.30
2023-12-07T00:40:23.033Z,11.10
2023-12-07T00:42:51.096Z,10.30
2023-12-07T00:45:20.512Z,9.10
2023-12-07T00:47:47.353Z,11.10
2023-12-07T00:50:15.105Z,9.60
2023-12-07T00:52:42.259Z,8.20
2023-12-07T00:55:12.408Z,16.60
2023-12-07T00:57:40.639Z,7.80
2023-12-07T01:00:08.591Z,8.80
2023-12-07T01:02:35.882Z,9.70
2023-12-07T01:05:02.901Z,7.60
2023-12-07T01:07:29.807Z,10.00
2023-12-07T01:09:56.737Z,8.40
2023-12-07T01:12:23.878Z,9.10
2023-12-07T01:14:53.716Z,6.60
2023-12-07T01:17:20.578Z,9.50
2023-12-07T01:19:47.544Z,9.40
2023-12-07T01:22:19.353Z,10.20
2023-12-07T01:24:46.526Z,8.60
2023-12-07T01:27:16.937Z,10.70
2023-12-07T01:29:43.757Z,7.20
2023-12-07T01:32:10.655Z,9.90
2023-12-07T01:34:37.408Z,7.90
2023-12-07T01:37:06.546Z,8.00
2023-12-07T01:39:33.631Z,10.80
2023-12-07T01:42:00.406Z,9.10
2023-12-07T01:44:29.903Z,9.40
2023-12-07T01:46:59.684Z,10.80
2023-12-07T01:49:26.604Z,8.70
2023-12-07T01:51:53.395Z,11.80
2023-12-07T01:54:24.849Z,6.70
2023-12-07T01:56:53.555Z,9.10
2023-12-07T01:59:24.342Z,8.30
2023-12-07T02:01:51.814Z,8.40
2023-12-07T02:04:21.065Z,5.90
2023-12-07T02:06:47.787Z,8.90
2023-12-07T02:09:16.378Z,5.20
2023-12-07T02:11:43.048Z,5.40
2023-12-07T02:14:12.895Z,8.20
2023-12-07T02:16:49.200Z,5.80
2023-12-07T02:19:19.206Z,5.30
2023-12-07T02:21:49.917Z,5.00
2023-12-07T02:24:24.317Z,5.60
2023-12-07T02:26:51.487Z,6.10
2023-12-07T02:29:23.347Z,5.00
2023-12-07T02:31:50.119Z,6.00
2023-12-07T02:34:17.385Z,7.10
2023-12-07T02:36:47.578Z,5.10
2023-12-07T02:39:14.992Z,8.80
2023-12-07T02:41:41.992Z,6.40
2023-12-07T02:44:12.500Z,6.60
2023-12-07T02:46:39.708Z,5.80
2023-12-07T02:49:06.749Z,5.40
2023-12-07T02:51:33.972Z,7.10
2023-12-07T02:54:02.727Z,5.30
2023-12-07T02:56:29.627Z,5.00
2023-12-07T02:59:00.575Z,4.90
2023-12-07T03:01:29.819Z,7.70
2023-12-07T03:03:56.612Z,7.70
2023-12-07T03:06:23.565Z,5.40
2023-12-07T03:08:50.412Z,6.70
2023-12-07T03:11:17.273Z,5.20
2023-12-07T03:13:44.050Z,5.00
2023-12-07T03:16:13.475Z,6.30
2023-12-07T03:18:40.450Z,6.10
2023-12-07T03:21:11.270Z,5.70
2023-12-07T03:23:40.975Z,6.30
2023-12-07T03:26:07.727Z,6.00
2023-12-07T03:28:35.828Z,5.40
2023-12-07T03:31:03.192Z,5.70
2023-12-07T03:33:33.165Z,5.70
2023-12-07T03:36:02.703Z,6.60
2023-12-07T03:38:32.776Z,7.40
2023-12-07T03:40:59.716Z,5.90
2023-12-07T03:43:29.628Z,6.10
2023-12-07T03:45:56.603Z,4.60
2023-12-07T03:48:23.650Z,5.40
2023-12-07T03:54:53.523Z,6.50
2023-12-07T03:57:41.440Z,7.20
2023-12-07T04:00:31.052Z,7.30
2023-12-07T04:03:56.027Z,5.40
2023-12-07T04:06:35.358Z,9.50
2023-12-07T04:09:02.170Z,6.10
2023-12-07T04:11:34.670Z,5.40
2023-12-07T04:14:01.383Z,6.00
2023-12-07T04:16:28.427Z,7.10
2023-12-07T04:18:55.404Z,7.60
2023-12-07T04:21:22.131Z,7.20
2023-12-07T04:23:49.096Z,6.40
2023-12-07T04:26:16.393Z,5.60
2023-12-07T04:28:44.916Z,6.30
2023-12-07T04:31:13.848Z,10.60
2023-12-07T04:33:40.820Z,7.20
2023-12-07T04:36:10.435Z,4.80
2023-12-07T04:38:37.349Z,5.50
2023-12-07T04:41:04.300Z,6.40
2023-12-07T04:43:31.404Z,4.30
2023-12-07T04:45:58.436Z,7.60
2023-12-07T04:48:27.967Z,5.30
2023-12-07T04:51:00.806Z,6.30
2023-12-07T04:59:54.699Z,5.70
2023-12-07T05:02:21.508Z,5.80
2023-12-07T05:04:48.495Z,6.70
2023-12-07T05:07:15.505Z,6.10
2023-12-07T05:09:42.635Z,5.50
2023-12-07T05:12:12.273Z,6.90
2023-12-07T05:14:39.110Z,5.90
2023-12-07T05:17:06.321Z,5.80
2023-12-07T05:20:02.844Z,5.30
2023-12-07T05:23:10.382Z,7.20
2023-12-07T05:25:56.876Z,6.30
2023-12-07T05:28:26.210Z,5.60
2023-12-07T05:30:53.490Z,7.50
2023-12-07T05:33:20.509Z,5.40
2023-12-07T05:35:47.359Z,4.90
2023-12-07T05:38:14.393Z,5.20
2023-12-07T05:40:41.530Z,5.30
2023-12-07T05:44:10.065Z,4.80
2023-12-07T05:46:55.221Z,6.70
2023-12-07T05:49:29.035Z,6.10
2023-12-07T05:51:56.073Z,4.90
2023-12-07T05:54:24.952Z,4.50
2023-12-07T05:56:51.901Z,7.30
2023-12-07T05:59:19.958Z,5.70
2023-12-07T06:01:51.794Z,5.70
2023-12-07T06:04:45.446Z,7.60
2023-12-07T06:07:53.977Z,7.60
2023-12-07T06:10:24.214Z,6.80
2023-12-07T06:12:51.246Z,6.70
2023-12-07T06:15:18.023Z,5.40
2023-12-07T06:17:47.742Z,5.80
2023-12-07T06:20:14.723Z,4.90
2023-12-07T06:22:44.781Z,5.50
2023-12-07T06:25:17.092Z,5.10
2023-12-07T06:27:44.920Z,5.30
2023-12-07T06:33:37.330Z,5.00
2023-12-07T06:36:05.559Z,5.10
2023-12-07T06:38:34.772Z,4.40
2023-12-07T06:41:01.612Z,4.30
2023-12-07T06:52:48.536Z,3.20
2023-12-07T06:55:16.011Z,4.30
2023-12-07T06:57:44.090Z,4.60
2023-12-07T07:03:25.398Z,6.60
2023-12-07T07:05:55.232Z,4.30
2023-12-07T07:08:22.273Z,4.20
2023-12-07T07:10:51.808Z,4.60
2023-12-07T07:13:21.474Z,4.20
2023-12-07T07:15:51.433Z,4.40
2023-12-07T07:18:18.591Z,4.90
2023-12-07T07:21:26.528Z,5.30
2023-12-07T07:24:24.659Z,3.50
2023-12-07T07:26:51.480Z,3.70
2023-12-07T07:29:20.218Z,6.10
2023-12-07T07:31:48.810Z,4.60
2023-12-07T07:37:45.701Z,4.30
2023-12-07T07:40:32.152Z,4.30
2023-12-07T07:46:11.148Z,5.60
2023-12-07T07:48:48.255Z,3.60
2023-12-07T07:51:15.187Z,4.00
2023-12-07T07:53:42.089Z,2.40
2023-12-07T07:56:09.362Z,3.70
2023-12-07T07:59:09.958Z,4.00
2023-12-07T08:05:34.548Z,3.70
2023-12-07T08:08:01.363Z,4.40
2023-12-07T08:10:33.339Z,3.00
2023-12-07T08:13:20.176Z,6.70
2023-12-07T08:15:47.109Z,4.80
2023-12-07T08:18:15.100Z,4.50
2023-12-07T08:20:44.413Z,6.20
2023-12-07T08:29:37.129Z,4.30
2023-12-07T08:32:04.205Z,3.20
2023-12-07T08:34:32.805Z,2.60
2023-12-07T08:37:03.389Z,3.70
2023-12-07T08:39:35.560Z,3.80
2023-12-07T08:42:04.948Z,5.80
2023-12-07T08:44:34.109Z,2.60
2023-12-07T08:47:00.897Z,2.30
2023-12-07T08:49:31.745Z,4.10
2023-12-07T08:52:12.596Z,2.40
2023-12-07T08:54:45.461Z,3.30
2023-12-07T08:57:12.409Z,2.80
2023-12-07T08:59:39.252Z,2.90
2023-12-07T09:02:37.387Z,7.50
2023-12-07T09:05:50.896Z,5.10
2023-12-07T09:08:33.689Z,2.00
2023-12-07T09:11:02.944Z,3.20
2023-12-07T09:13:29.749Z,4.80
2023-12-07T09:15:56.752Z,4.30
2023-12-07T09:18:24.287Z,4.40
2023-12-07T09:20:53.608Z,2.40
2023-12-07T09:23:22.932Z,6.90
2023-12-07T09:25:49.688Z,3.30
2023-12-07T09:28:19.062Z,3.50
2023-12-07T09:30:45.991Z,3.10
2023-12-07T09:33:16.648Z,3.70
2023-12-07T09:35:44.377Z,3.60
2023-12-07T09:38:13.130Z,4.40
2023-12-07T09:40:43.689Z,7.70
2023-12-07T09:43:11.638Z,4.70
2023-12-07T09:45:38.451Z,4.20
2023-12-07T09:48:05.280Z,3.70
2023-12-07T09:50:32.331Z,3.60
2023-12-07T09:53:07.068Z,5.80
2023-12-07T09:55:37.260Z,3.20
2023-12-07T10:00:40.003Z,10.60
2023-12-07T10:03:11.053Z,5.90
2023-12-07T10:05:57.413Z,4.50
2023-12-07T10:08:31.226Z,3.20
2023-12-07T10:11:05.586Z,3.20
2023-12-07T10:13:36.280Z,4.80
2023-12-07T10:16:10.951Z,2.70
2023-12-07T10:18:42.361Z,2.60
2023-12-07T10:21:12.875Z,6.80
2023-12-07T10:23:41.410Z,2.80
2023-12-07T10:26:08.197Z,5.20
2023-12-07T10:28:37.496Z,6.80
2023-12-07T10:31:07.221Z,2.90
2023-12-07T10:33:34.036Z,2.80
2023-12-07T10:36:04.973Z,3.50
2023-12-07T10:38:33.156Z,3.30
2023-12-07T10:41:08.823Z,4.40
2023-12-07T10:43:37.667Z,8.70
2023-12-07T10:46:05.712Z,7.00
2023-12-07T10:48:47.795Z,9.80
2023-12-07T10:52:05.778Z,11.40
2023-12-07T10:55:20.929Z,76.40
2023-12-07T10:57:47.929Z,56.80
2023-12-07T11:00:15.373Z,31.40
2023-12-07T11:02:43.493Z,13.10
2023-12-07T11:05:11.681Z,31.60
2023-12-07T11:08:01.157Z,12.60
2023-12-07T11:10:33.957Z,13.80
2023-12-07T11:13:04.054Z,15.80
2023-12-07T11:15:31.577Z,16.90
2023-12-07T11:18:00.150Z,20.60
2023-12-07T11:20:42.477Z,21.90
2023-12-07T11:23:10.358Z,21.90
2023-12-07T11:25:43.453Z,33.80
2023-12-07T11:28:11.709Z,26.00
2023-12-07T11:30:39.078Z,27.30
2023-12-07T11:33:08.116Z,22.10
2023-12-07T11:35:54.835Z,32.50
2023-12-07T11:38:21.626Z,36.90
2023-12-07T11:40:48.578Z,38.30
2023-12-07T11:43:36.867Z,38.10
2023-12-07T11:46:04.384Z,46.00
2023-12-07T11:48:38.561Z,48.10
2023-12-07T11:51:38.905Z,38.60
2023-12-07T11:55:09.790Z,42.10
2023-12-07T11:58:08.040Z,42.70
2023-12-07T12:00:35.749Z,43.20
2023-12-07T12:03:06.309Z,41.90
2023-12-07T12:05:36.087Z,48.90
2023-12-07T12:11:41.366Z,39.60
2023-12-07T12:14:22.573Z,41.30
2023-12-07T12:16:50.277Z,37.20
2023-12-07T12:19:25.909Z,38.60
2023-12-07T12:22:05.012Z,44.80
2023-12-07T12:24:34.504Z,40.00
2023-12-07T12:27:01.971Z,44.90
2023-12-07T12:29:33.980Z,43.70
2023-12-07T12:32:02.682Z,48.80
2023-12-07T12:34:34.601Z,45.20
2023-12-07T12:37:07.302Z,46.40
2023-12-07T12:55:10.789Z,48.50
2023-12-07T12:57:39.610Z,44.10
2023-12-07T13:00:08.538Z,46.10
2023-12-07T13:02:39.599Z,41.20
2023-12-07T13:05:08.516Z,45.00
2023-12-07T13:07:38.404Z,47.70
2023-12-07T13:10:09.631Z,45.60
2023-12-07T13:12:39.643Z,43.30
2023-12-07T13:15:08.378Z,42.50
2023-12-07T13:17:36.767Z,35.90
2023-12-07T13:20:06.519Z,46.50
2023-12-07T13:22:41.679Z,46.60
2023-12-07T13:25:09.882Z,47.60
2023-12-07T13:27:38.231Z,43.90
2023-12-07T13:30:12.264Z,43.60
2023-12-07T13:32:40.597Z,45.70
2023-12-07T13:35:14.034Z,34.60
2023-12-07T13:37:44.878Z,39.60
2023-12-07T13:40:16.590Z,33.50
2023-12-07T13:42:44.677Z,45.40
2023-12-07T13:45:12.924Z,43.90
2023-12-07T13:47:41.311Z,34.20
2023-12-07T13:50:13.315Z,52.80
2023-12-07T13:52:44.726Z,58.00
2023-12-07T13:55:15.085Z,57.90
2023-12-07T13:57:46.040Z,61.10
2023-12-07T14:00:14.679Z,55.10
2023-12-07T14:02:45.810Z,48.50
2023-12-07T14:05:14.415Z,54.10
2023-12-07T14:07:45.168Z,51.80
2023-12-07T14:10:16.790Z,62.30
2023-12-07T14:12:45.127Z,44.60
2023-12-07T14:15:13.706Z,57.20
2023-12-07T14:17:50.901Z,53.40
2023-12-07T14:20:35.665Z,59.10
2023-12-07T14:23:13.561Z,49.70
2023-12-07T14:25:41.674Z,74.00
2023-12-07T14:28:12.826Z,49.70
2023-12-07T14:30:46.831Z,74.50
2023-12-07T14:33:17.654Z,60.00
2023-12-07T14:35:50.059Z,64.70
2023-12-07T14:38:20.695Z,55.50
2023-12-07T14:40:48.930Z,77.80
2023-12-07T14:43:22.373Z,72.80
2023-12-07T14:45:50.646Z,48.10
2023-12-07T14:48:19.103Z,53.60
2023-12-07T14:50:49.850Z,55.00
2023-12-07T14:53:17.948Z,39.80
2023-12-07T14:55:46.461Z,58.80
2023-12-07T14:58:14.940Z,70.80
2023-12-07T15:00:46.214Z,53.00
2023-12-07T15:03:15.032Z,63.10
2023-12-07T15:05:43.732Z,62.70
2023-12-07T15:08:12.257Z,60.70
2023-12-07T15:10:40.428Z,64.90
2023-12-07T15:13:11.619Z,68.00
2023-12-07T15:15:39.925Z,71.00
2023-12-07T15:18:09.145Z,69.80
2023-12-07T15:20:42.425Z,69.80
2023-12-07T15:23:10.756Z,68.50
2023-12-07T15:25:41.437Z,84.10
2023-12-07T15:28:18.602Z,59.50
2023-12-07T15:30:46.771Z,61.90
2023-12-07T15:33:18.615Z,61.80
2023-12-07T15:35:50.701Z,66.40
2023-12-07T15:39:18.157Z,53.90
2023-12-07T15:42:14.351Z,62.20
2023-12-07T15:44:58.701Z,59.40
2023-12-07T15:47:27.498Z,63.70
2023-12-07T15:49:59.300Z,57.10
2023-12-07T15:53:08.031Z,55.30
2023-12-07T15:56:03.515Z,65.40
2023-12-07T15:58:43.974Z,72.40
2023-12-07T16:01:12.134Z,61.70
2023-12-07T16:03:40.772Z,66.40
2023-12-07T16:06:09.600Z,49.90
2023-12-07T16:08:48.781Z,48.60
2023-12-07T16:11:51.930Z,44.30
2023-12-07T16:14:49.334Z,37.40
2023-12-07T16:17:19.007Z,32.40
2023-12-07T16:19:47.363Z,49.20
2023-12-07T16:22:16.237Z,46.20
2023-12-07T16:24:46.725Z,52.60
2023-12-07T16:27:17.742Z,51.80
2023-12-07T16:29:48.987Z,66.90
2023-12-07T16:32:17.111Z,61.60
2023-12-07T16:34:48.211Z,53.10
2023-12-07T16:37:18.093Z,63.10
2023-12-07T16:39:49.804Z,53.80
2023-12-07T16:42:20.279Z,51.80
2023-12-07T16:44:53.282Z,53.20
2023-12-07T16:47:25.485Z,56.00
2023-12-07T16:52:24.605Z,65.20
2023-12-07T16:54:56.327Z,57.60
2023-12-07T16:57:25.310Z,67.40
2023-12-07T16:59:59.783Z,62.70
2023-12-07T17:02:32.301Z,62.90
2023-12-07T17:05:19.606Z,47.90
2023-12-07T17:10:56.743Z,50.80
2023-12-07T17:13:25.272Z,59.60
2023-12-07T17:15:55.220Z,50.60
2023-12-07T17:18:25.768Z,43.10
2023-12-07T17:20:56.045Z,45.40
2023-12-07T17:23:27.369Z,44.90
2023-12-07T17:25:56.857Z,48.70
2023-12-07T17:28:25.209Z,38.50
2023-12-07T17:30:55.174Z,37.70
2023-12-07T17:33:23.609Z,46.10
2023-12-07T17:35:52.078Z,38.50
2023-12-07T17:38:21.953Z,39.60
2023-12-07T17:40:50.053Z,42.80
2023-12-07T17:43:18.329Z,46.80
2023-12-07T17:45:46.605Z,38.10
2023-12-07T17:48:15.197Z,36.30
2023-12-07T17:50:45.561Z,32.70
2023-12-07T17:53:13.941Z,36.50
2023-12-07T17:55:46.716Z,39.70
2023-12-07T17:58:17.321Z,36.10
2023-12-07T18:00:46.751Z,34.00
2023-12-07T18:03:15.488Z,37.40
2023-12-07T18:05:43.902Z,35.30
2023-12-07T18:08:20.095Z,35.60
2023-12-07T18:10:51.183Z,27.80
2023-12-07T18:13:20.578Z,29.20
2023-12-07T18:15:48.730Z,36.70
2023-12-07T18:18:17.060Z,32.40
2023-12-07T18:20:45.602Z,32.60
2023-12-07T18:23:13.889Z,28.70
2023-12-07T18:25:42.516Z,28.90
2023-12-07T18:28:14.417Z,29.00
2023-12-07T18:30:45.288Z,30.60
2023-12-07T18:33:16.572Z,27.00
2023-12-07T18:35:45.466Z,25.70
2023-12-07T18:38:14.470Z,30.70
2023-12-07T18:40:48.737Z,25.00
2023-12-07T18:43:17.096Z,28.20
2023-12-07T18:45:45.697Z,27.60
2023-12-07T18:48:16.998Z,33.00
2023-12-07T18:50:51.142Z,31.70
2023-12-07T18:53:19.480Z,28.00
2023-12-07T18:55:51.908Z,27.70
2023-12-07T18:58:23.722Z,32.10
2023-12-07T19:00:55.012Z,34.30
2023-12-07T19:03:24.440Z,32.20
2023-12-07T19:05:56.098Z,37.20
2023-12-07T19:08:27.198Z,30.60
2023-12-07T19:10:57.848Z,35.60
2023-12-07T19:13:26.278Z,27.80
2023-12-07T19:15:57.628Z,30.40
2023-12-07T19:18:28.074Z,32.80
2023-12-07T19:20:57.711Z,30.60
2023-12-07T19:23:25.973Z,32.70
2023-12-07T19:25:54.144Z,33.80
2023-12-07T19:28:22.488Z,29.00
2023-12-07T19:30:53.019Z,25.30
2023-12-07T19:33:26.243Z,28.50
2023-12-07T19:36:01.656Z,28.00
2023-12-07T19:38:30.147Z,27.20
2023-12-07T19:40:58.565Z,32.20
2023-12-07T19:43:29.035Z,27.40
2023-12-07T19:45:59.828Z,24.60
2023-12-07T19:48:28.523Z,30.10
2023-12-07T19:50:59.389Z,27.50
2023-12-07T19:53:28.200Z,34.90
2023-12-07T19:55:56.399Z,30.80
2023-12-07T19:58:24.568Z,30.90
2023-12-07T20:00:52.913Z,32.40
2023-12-07T20:03:23.785Z,32.90
2023-12-07T20:05:52.158Z,34.60
2023-12-07T20:08:23.350Z,38.10
2023-12-07T20:10:54.710Z,41.10
2023-12-07T20:13:24.172Z,37.20
2023-12-07T20:15:53.536Z,37.10
2023-12-07T20:18:22.055Z,36.10
2023-12-07T20:20:52.222Z,37.30
2023-12-07T20:23:21.265Z,35.40
2023-12-07T20:25:49.639Z,33.40
2023-12-07T20:28:17.898Z,38.10
2023-12-07T20:30:47.152Z,36.60
2023-12-07T20:33:15.413Z,36.40
2023-12-07T20:35:48.992Z,32.30
2023-12-07T20:38:17.064Z,35.10
2023-12-07T20:40:45.179Z,32.90
2023-12-07T20:43:14.304Z,35.40
2023-12-07T20:45:44.387Z,33.40
2023-12-07T20:48:13.135Z,29.90
2023-12-07T20:50:44.174Z,39.60
2023-12-07T20:53:12.574Z,40.70
2023-12-07T20:55:46.293Z,37.70
2023-12-07T20:58:14.845Z,31.00
2023-12-07T21:00:45.293Z,33.80
2023-12-07T21:03:13.637Z,40.20
2023-12-07T21:05:49.262Z,43.70
2023-12-07T21:08:20.325Z,34.70
2023-12-07T21:10:48.526Z,40.70
2023-12-07T21:13:16.611Z,46.70
2023-12-07T21:15:47.601Z,36.80
2023-12-07T21:18:20.462Z,40.50
2023-12-07T21:20:51.478Z,42.70
2023-12-07T21:23:22.387Z,41.30
2023-12-07T21:25:50.457Z,49.50
2023-12-07T21:28:18.530Z,43.60
2023-12-07T21:30:46.604Z,35.40
2023-12-07T21:33:17.914Z,37.20
2023-12-07T21:38:19.232Z,50.70
2023-12-07T21:40:47.485Z,44.10
2023-12-07T21:43:15.965Z,35.60
2023-12-07T21:45:48.235Z,39.90
2023-12-07T21:48:16.598Z,46.20
2023-12-07T21:50:45.118Z,55.50
2023-12-07T21:53:15.544Z,51.00
2023-12-07T21:55:47.332Z,47.30
2023-12-07T21:58:15.437Z,51.60
2023-12-07T22:00:46.813Z,50.60
2023-12-07T22:03:15.123Z,39.20
2023-12-07T22:05:49.913Z,51.40
2023-12-07T22:08:19.916Z,49.00
2023-12-07T22:10:50.522Z,44.80
2023-12-07T22:13:18.574Z,47.60
2023-12-07T22:15:49.740Z,46.50
2023-12-07T22:18:20.961Z,45.40
2023-12-07T22:20:52.318Z,38.40
2023-12-07T22:23:23.996Z,46.60
2023-12-07T22:25:53.278Z,46.90
2023-12-07T22:28:21.672Z,49.10
2023-12-07T22:30:51.310Z,49.60
2023-12-07T22:33:26.332Z,41.40
2023-12-07T22:36:49.024Z,48.40
2023-12-07T22:39:24.268Z,57.10
2023-12-07T22:41:52.670Z,46.10
2023-12-07T22:44:23.398Z,51.00
2023-12-07T22:46:51.550Z,48.60
2023-12-07T22:49:19.631Z,47.60
2023-12-07T22:51:47.767Z,53.10
2023-12-07T22:54:16.308Z,53.40
2023-12-07T22:56:47.560Z,58.80
2023-12-07T22:59:16.063Z,52.30
2023-12-07T23:01:44.521Z,48.50
2023-12-07T23:04:16.676Z,53.00
2023-12-07T23:06:44.808Z,46.90
2023-12-07T23:09:13.115Z,48.80
2023-12-07T23:11:41.218Z,42.90
2023-12-07T23:14:09.537Z,49.50
2023-12-07T23:16:45.850Z,47.10
2023-12-07T23:19:15.113Z,44.30
2023-12-07T23:21:43.650Z,41.60
2023-12-07T23:24:14.855Z,51.00
2023-12-07T23:26:46.632Z,48.10
2023-12-07T23:29:14.998Z,55.00
2023-12-07T23:31:45.996Z,53.70
2023-12-07T23:34:15.075Z,43.60
2023-12-07T23:36:46.722Z,50.90
2023-12-07T23:39:18.582Z,46.90
2023-12-07T23:41:47.000Z,57.20
2023-12-07T23:44:15.471Z,54.50
2023-12-07T23:46:45.719Z,50.00
2023-12-07T23:49:21.800Z,50.80
2023-12-07T23:51:52.678Z,42.50
2023-12-07T23:54:23.248Z,43.30
2023-12-07T23:56:51.558Z,50.90
2023-12-07T23:59:19.821Z,54.00
